sensor_id;sensor_type;location;lat;lon;timestamp;P1;durP1;ratioP1;P2;durP2;ratioP2
18661;SDS011;61528;49.456;11.098;2024-01-15T00:01:43;43.40;;;13.83;;
18661;SDS011;61528;49.456;11.098;2024-01-15T00:04:09;41.43;;;14.63;;
18661;SDS011;61528;49.456;11.098;2024-01-15T00:06:36;33.43;;;13.20;;
18661;SDS011;61528;49.456;11.098;2024-01-15T00:09:02;30.40;;;12.30;;
18661;SDS011;61528;49.456;11.098;2024-01-15T00:11:29;39.83;;;14.33;;
18661;SDS011;61528;49.456;11.098;2024-01-15T00:13:55;35.97;;;13.30;;
18661;SDS011;61528;49.456;11.098;2024-01-15T00:16:21;43.87;;;13.63;;
18661;SDS011;61528;49.456;11.098;2024-01-15T00:18:48;37.23;;;13.70;;
18661;SDS011;61528;49.456;11.098;2024-01-15T00:21:14;38.67;;;12.70;;
18661;SDS011;61528;49.456;11.098;2024-01-15T00:23:43;35.17;;;12.93;;
18661;SDS011;61528;49.456;11.098;2024-01-15T00:26:10;36.63;;;12.37;;
18661;SDS011;61528;49.456;11.098;2024-01-15T00:28:36;34.30;;;13.27;;
18661;SDS011;61528;49.456;11.098;2024-01-15T00:31:04;34.70;;;11.67;;
18661;SDS011;61528;49.456;11.098;2024-01-15T00:33:30;33.57;;;12.43;;
18661;SDS011;61528;49.456;11.098;2024-01-15T00:35:56;34.63;;;12.73;;
18661;SDS011;61528;49.456;11.098;2024-01-15T00:38:22;35.57;;;12.33;;
18661;SDS011;61528;49.456;11.098;2024-01-15T00:40:49;33.27;;;13.17;;
18661;SDS011;61528;49.456;11.098;2024-01-15T00:43:15;36.43;;;12.77;;
18661;SDS011;61528;49.456;11.098;2024-01-15T00:45:43;32.87;;;11.80;;
18661;SDS011;61528;49.456;11.098;2024-01-15T00:48:09;38.40;;;14.87;;
18661;SDS011;61528;49.456;11.098;2024-01-15T00:50:35;38.40;;;13.67;;
18661;SDS011;61528;49.456;11.098;2024-01-15T00:53:01;34.27;;;13.07;;
18661;SDS011;61528;49.456;11.098;2024-01-15T00:55:28;37.37;;;13.73;;
18661;SDS011;61528;49.456;11.098;2024-01-15T00:57:54;38.13;;;13.53;;
18661;SDS011;61528;49.456;11.098;2024-01-15T01:00:20;31.90;;;11.53;;
18661;SDS011;61528;49.456;11.098;2024-01-15T01:02:47;36.97;;;13.10;;
18661;SDS011;61528;49.456;11.098;2024-01-15T01:05:14;39.27;;;14.07;;
18661;SDS011;61528;49.456;11.098;2024-01-15T01:07:40;36.70;;;12.20;;
18661;SDS011;61528;49.456;11.098;2024-01-15T01:10:06;40.27;;;14.27;;
18661;SDS011;61528;49.456;11.098;2024-01-15T01:12:32;35.17;;;13.57;;
18661;SDS011;61528;49.456;11.098;2024-01-15T01:14:59;33.63;;;12.97;;
18661;SDS011;61528;49.456;11.098;2024-01-15T01:17:25;33.63;;;12.83;;
18661;SDS011;61528;49.456;11.098;2024-01-15T01:19:51;39.93;;;14.87;;
18661;SDS011;61528;49.456;11.098;2024-01-15T01:22:17;34.90;;;13.90;;
18661;SDS011;61528;49.456;11.098;2024-01-15T01:24:43;34.63;;;12.63;;
18661;SDS011;61528;49.456;11.098;2024-01-15T01:27:10;35.67;;;13.47;;
18661;SDS011;61528;49.456;11.098;2024-01-15T01:29:36;36.73;;;13.70;;
18661;SDS011;61528;49.456;11.098;2024-01-15T01:32:02;31.67;;;12.47;;
18661;SDS011;61528;49.456;11.098;2024-01-15T01:34:28;37.93;;;14.13;;
18661;SDS011;61528;49.456;11.098;2024-01-15T01:36:55;36.23;;;15.10;;
18661;SDS011;61528;49.456;11.098;2024-01-15T01:39:21;39.00;;;14.27;;
18661;SDS011;61528;49.456;11.098;2024-01-15T01:41:47;33.37;;;12.23;;
18661;SDS011;61528;49.456;11.098;2024-01-15T01:44:14;32.73;;;12.93;;
18661;SDS011;61528;49.456;11.098;2024-01-15T01:46:40;36.60;;;12.70;;
18661;SDS011;61528;49.456;11.098;2024-01-15T01:49:07;36.90;;;12.67;;
18661;SDS011;61528;49.456;11.098;2024-01-15T01:51:34;39.47;;;12.37;;
18661;SDS011;61528;49.456;11.098;2024-01-15T01:54:02;32.53;;;12.77;;
18661;SDS011;61528;49.456;11.098;2024-01-15T01:56:29;38.57;;;13.30;;
18661;SDS011;61528;49.456;11.098;2024-01-15T01:58:55;40.07;;;12.93;;
18661;SDS011;61528;49.456;11.098;2024-01-15T02:01:21;33.00;;;12.83;;
18661;SDS011;61528;49.456;11.098;2024-01-15T02:03:47;30.53;;;12.10;;
18661;SDS011;61528;49.456;11.098;2024-01-15T02:06:14;35.23;;;12.87;;
18661;SDS011;61528;49.456;11.098;2024-01-15T02:08:41;37.10;;;13.27;;
18661;SDS011;61528;49.456;11.098;2024-01-15T02:11:10;36.37;;;12.53;;
18661;SDS011;61528;49.456;11.098;2024-01-15T02:13:36;34.50;;;12.80;;
18661;SDS011;61528;49.456;11.098;2024-01-15T02:16:02;37.37;;;12.37;;
18661;SDS011;61528;49.456;11.098;2024-01-15T02:18:28;33.67;;;11.97;;
18661;SDS011;61528;49.456;11.098;2024-01-15T02:20:54;33.10;;;11.93;;
18661;SDS011;61528;49.456;11.098;2024-01-15T02:23:21;33.23;;;12.70;;
18661;SDS011;61528;49.456;11.098;2024-01-15T02:25:47;32.73;;;11.90;;
18661;SDS011;61528;49.456;11.098;2024-01-15T02:28:14;28.87;;;10.43;;
18661;SDS011;61528;49.456;11.098;2024-01-15T02:30:41;33.77;;;11.20;;
18661;SDS011;61528;49.456;11.098;2024-01-15T02:33:07;33.37;;;12.20;;
18661;SDS011;61528;49.456;11.098;2024-01-15T02:35:34;34.27;;;11.13;;
18661;SDS011;61528;49.456;11.098;2024-01-15T02:38:06;31.03;;;10.43;;
18661;SDS011;61528;49.456;11.098;2024-01-15T02:40:32;27.83;;;10.70;;
18661;SDS011;61528;49.456;11.098;2024-01-15T02:42:59;30.90;;;11.03;;
18661;SDS011;61528;49.456;11.098;2024-01-15T02:45:25;27.67;;;11.33;;
18661;SDS011;61528;49.456;11.098;2024-01-15T02:47:51;28.03;;;10.63;;
18661;SDS011;61528;49.456;11.098;2024-01-15T02:50:17;27.97;;;10.53;;
18661;SDS011;61528;49.456;11.098;2024-01-15T02:52:44;28.03;;;10.67;;
18661;SDS011;61528;49.456;11.098;2024-01-15T02:55:10;25.90;;;10.00;;
18661;SDS011;61528;49.456;11.098;2024-01-15T02:57:36;29.67;;;11.20;;
18661;SDS011;61528;49.456;11.098;2024-01-15T03:00:02;26.70;;;9.97;;
18661;SDS011;61528;49.456;11.098;2024-01-15T03:02:29;26.87;;;10.87;;
18661;SDS011;61528;49.456;11.098;2024-01-15T03:04:56;26.07;;;9.83;;
18661;SDS011;61528;49.456;11.098;2024-01-15T03:07:23;25.07;;;11.10;;
18661;SDS011;61528;49.456;11.098;2024-01-15T03:09:49;32.30;;;10.83;;
18661;SDS011;61528;49.456;11.098;2024-01-15T03:12:15;26.33;;;9.97;;
18661;SDS011;61528;49.456;11.098;2024-01-15T03:14:41;25.97;;;10.27;;
18661;SDS011;61528;49.456;11.098;2024-01-15T03:17:07;27.97;;;11.00;;
18661;SDS011;61528;49.456;11.098;2024-01-15T03:19:35;27.27;;;10.07;;
18661;SDS011;61528;49.456;11.098;2024-01-15T03:22:01;29.37;;;10.80;;
18661;SDS011;61528;49.456;11.098;2024-01-15T03:24:28;34.63;;;11.40;;
18661;SDS011;61528;49.456;11.098;2024-01-15T03:26:55;24.03;;;9.30;;
18661;SDS011;61528;49.456;11.098;2024-01-15T03:29:21;23.43;;;9.33;;
18661;SDS011;61528;49.456;11.098;2024-01-15T03:31:47;28.57;;;9.73;;
18661;SDS011;61528;49.456;11.098;2024-01-15T03:34:13;27.07;;;10.57;;
18661;SDS011;61528;49.456;11.098;2024-01-15T03:36:39;21.43;;;8.87;;
18661;SDS011;61528;49.456;11.098;2024-01-15T03:39:06;18.00;;;8.87;;
18661;SDS011;61528;49.456;11.098;2024-01-15T03:41:32;18.80;;;8.40;;
18661;SDS011;61528;49.456;11.098;2024-01-15T03:43:59;23.83;;;8.10;;
18661;SDS011;61528;49.456;11.098;2024-01-15T03:46:25;22.77;;;9.00;;
18661;SDS011;61528;49.456;11.098;2024-01-15T03:48:51;27.67;;;8.83;;
18661;SDS011;61528;49.456;11.098;2024-01-15T03:51:17;19.50;;;8.07;;
18661;SDS011;61528;49.456;11.098;2024-01-15T03:53:44;19.87;;;7.70;;
18661;SDS011;61528;49.456;11.098;2024-01-15T03:56:10;27.17;;;9.87;;
18661;SDS011;61528;49.456;11.098;2024-01-15T03:58:36;23.93;;;9.33;;
18661;SDS011;61528;49.456;11.098;2024-01-15T04:01:02;29.30;;;8.83;;
18661;SDS011;61528;49.456;11.098;2024-01-15T04:03:28;24.93;;;9.90;;
18661;SDS011;61528;49.456;11.098;2024-01-15T04:05:54;17.40;;;8.00;;
18661;SDS011;61528;49.456;11.098;2024-01-15T04:08:22;20.60;;;8.27;;
18661;SDS011;61528;49.456;11.098;2024-01-15T04:10:48;22.57;;;7.80;;
18661;SDS011;61528;49.456;11.098;2024-01-15T04:13:14;23.63;;;9.53;;
18661;SDS011;61528;49.456;11.098;2024-01-15T04:15:40;21.73;;;8.43;;
18661;SDS011;61528;49.456;11.098;2024-01-15T04:18:06;26.47;;;9.00;;
18661;SDS011;61528;49.456;11.098;2024-01-15T04:20:32;25.60;;;9.77;;
18661;SDS011;61528;49.456;11.098;2024-01-15T04:22:59;22.30;;;9.40;;
18661;SDS011;61528;49.456;11.098;2024-01-15T04:25:25;23.10;;;7.97;;
18661;SDS011;61528;49.456;11.098;2024-01-15T04:27:51;22.33;;;8.57;;
18661;SDS011;61528;49.456;11.098;2024-01-15T04:30:17;20.83;;;8.50;;
18661;SDS011;61528;49.456;11.098;2024-01-15T04:32:43;23.97;;;8.60;;
18661;SDS011;61528;49.456;11.098;2024-01-15T04:35:09;22.13;;;8.70;;
18661;SDS011;61528;49.456;11.098;2024-01-15T04:37:35;15.57;;;7.10;;
18661;SDS011;61528;49.456;11.098;2024-01-15T04:40:02;22.93;;;8.10;;
18661;SDS011;61528;49.456;11.098;2024-01-15T04:42:29;22.00;;;8.37;;
18661;SDS011;61528;49.456;11.098;2024-01-15T04:44:55;18.43;;;7.80;;
18661;SDS011;61528;49.456;11.098;2024-01-15T04:47:21;17.37;;;7.97;;
18661;SDS011;61528;49.456;11.098;2024-01-15T04:49:47;20.37;;;9.23;;
18661;SDS011;61528;49.456;11.098;2024-01-15T04:52:14;22.50;;;8.80;;
18661;SDS011;61528;49.456;11.098;2024-01-15T04:54:40;18.50;;;8.30;;
18661;SDS011;61528;49.456;11.098;2024-01-15T04:57:06;18.50;;;8.33;;
18661;SDS011;61528;49.456;11.098;2024-01-15T04:59:32;19.00;;;7.97;;
18661;SDS011;61528;49.456;11.098;2024-01-15T05:01:58;22.73;;;8.80;;
18661;SDS011;61528;49.456;11.098;2024-01-15T05:04:24;15.87;;;7.97;;
18661;SDS011;61528;49.456;11.098;2024-01-15T05:06:51;25.03;;;8.97;;
18661;SDS011;61528;49.456;11.098;2024-01-15T05:09:17;18.90;;;7.90;;
18661;SDS011;61528;49.456;11.098;2024-01-15T05:11:43;24.00;;;9.33;;
18661;SDS011;61528;49.456;11.098;2024-01-15T05:14:09;24.33;;;8.37;;
18661;SDS011;61528;49.456;11.098;2024-01-15T05:16:38;19.13;;;8.10;;
18661;SDS011;61528;49.456;11.098;2024-01-15T05:19:04;21.53;;;8.23;;
18661;SDS011;61528;49.456;11.098;2024-01-15T05:21:30;24.30;;;9.23;;
18661;SDS011;61528;49.456;11.098;2024-01-15T05:23:56;21.93;;;9.10;;
18661;SDS011;61528;49.456;11.098;2024-01-15T05:26:23;19.33;;;8.47;;
18661;SDS011;61528;49.456;11.098;2024-01-15T05:28:51;23.53;;;9.10;;
18661;SDS011;61528;49.456;11.098;2024-01-15T05:31:17;23.33;;;9.57;;
18661;SDS011;61528;49.456;11.098;2024-01-15T05:33:43;21.07;;;8.20;;
18661;SDS011;61528;49.456;11.098;2024-01-15T05:36:09;17.07;;;8.10;;
18661;SDS011;61528;49.456;11.098;2024-01-15T05:38:36;18.97;;;7.37;;
18661;SDS011;61528;49.456;11.098;2024-01-15T05:41:02;19.63;;;8.90;;
18661;SDS011;61528;49.456;11.098;2024-01-15T05:43:28;20.83;;;7.83;;
18661;SDS011;61528;49.456;11.098;2024-01-15T05:45:54;17.37;;;8.60;;
18661;SDS011;61528;49.456;11.098;2024-01-15T05:48:20;22.10;;;9.47;;
18661;SDS011;61528;49.456;11.098;2024-01-15T05:50:46;26.33;;;9.00;;
18661;SDS011;61528;49.456;11.098;2024-01-15T05:53:13;16.70;;;7.80;;
18661;SDS011;61528;49.456;11.098;2024-01-15T05:55:39;24.17;;;8.77;;
18661;SDS011;61528;49.456;11.098;2024-01-15T05:58:05;19.97;;;8.67;;
18661;SDS011;61528;49.456;11.098;2024-01-15T06:00:32;23.33;;;8.60;;
18661;SDS011;61528;49.456;11.098;2024-01-15T06:03:00;19.03;;;7.80;;
18661;SDS011;61528;49.456;11.098;2024-01-15T06:05:26;19.23;;;8.23;;
18661;SDS011;61528;49.456;11.098;2024-01-15T06:07:52;18.23;;;8.37;;
18661;SDS011;61528;49.456;11.098;2024-01-15T06:10:19;16.63;;;8.17;;
18661;SDS011;61528;49.456;11.098;2024-01-15T06:12:45;15.63;;;7.20;;
18661;SDS011;61528;49.456;11.098;2024-01-15T06:15:11;19.10;;;7.90;;
18661;SDS011;61528;49.456;11.098;2024-01-15T06:17:38;21.63;;;8.03;;
18661;SDS011;61528;49.456;11.098;2024-01-15T06:20:10;21.97;;;8.13;;
18661;SDS011;61528;49.456;11.098;2024-01-15T06:22:37;16.23;;;8.07;;
18661;SDS011;61528;49.456;11.098;2024-01-15T06:25:05;19.40;;;8.13;;
18661;SDS011;61528;49.456;11.098;2024-01-15T06:27:31;16.53;;;7.17;;
18661;SDS011;61528;49.456;11.098;2024-01-15T06:29:58;19.03;;;7.87;;
18661;SDS011;61528;49.456;11.098;2024-01-15T06:32:24;18.53;;;6.97;;
18661;SDS011;61528;49.456;11.098;2024-01-15T06:34:50;17.10;;;7.53;;
18661;SDS011;61528;49.456;11.098;2024-01-15T06:37:16;21.17;;;8.93;;
18661;SDS011;61528;49.456;11.098;2024-01-15T06:39:44;15.43;;;6.83;;
18661;SDS011;61528;49.456;11.098;2024-01-15T06:42:10;19.43;;;8.77;;
18661;SDS011;61528;49.456;11.098;2024-01-15T06:44:36;19.70;;;8.57;;
18661;SDS011;61528;49.456;11.098;2024-01-15T06:47:02;19.20;;;8.63;;
18661;SDS011;61528;49.456;11.098;2024-01-15T06:49:28;19.30;;;7.80;;
18661;SDS011;61528;49.456;11.098;2024-01-15T06:51:55;18.43;;;8.47;;
18661;SDS011;61528;49.456;11.098;2024-01-15T06:54:21;20.43;;;8.40;;
18661;SDS011;61528;49.456;11.098;2024-01-15T06:56:48;19.23;;;7.70;;
18661;SDS011;61528;49.456;11.098;2024-01-15T06:59:15;21.43;;;8.67;;
18661;SDS011;61528;49.456;11.098;2024-01-15T07:01:41;19.93;;;7.80;;
18661;SDS011;61528;49.456;11.098;2024-01-15T07:04:07;21.97;;;8.93;;
18661;SDS011;61528;49.456;11.098;2024-01-15T07:06:34;24.57;;;9.57;;
18661;SDS011;61528;49.456;11.098;2024-01-15T07:09:00;18.57;;;7.83;;
18661;SDS011;61528;49.456;11.098;2024-01-15T07:11:26;20.10;;;8.47;;
18661;SDS011;61528;49.456;11.098;2024-01-15T07:13:52;22.60;;;8.00;;
18661;SDS011;61528;49.456;11.098;2024-01-15T07:16:18;20.63;;;8.13;;
18661;SDS011;61528;49.456;11.098;2024-01-15T07:18:44;17.80;;;8.53;;
18661;SDS011;61528;49.456;11.098;2024-01-15T07:21:10;18.30;;;8.47;;
18661;SDS011;61528;49.456;11.098;2024-01-15T07:23:36;19.03;;;6.93;;
18661;SDS011;61528;49.456;11.098;2024-01-15T07:26:02;17.07;;;7.10;;
18661;SDS011;61528;49.456;11.098;2024-01-15T07:28:30;20.17;;;8.23;;
18661;SDS011;61528;49.456;11.098;2024-01-15T07:30:56;16.97;;;7.60;;
18661;SDS011;61528;49.456;11.098;2024-01-15T07:33:22;18.13;;;8.10;;
18661;SDS011;61528;49.456;11.098;2024-01-15T07:35:48;19.40;;;8.30;;
18661;SDS011;61528;49.456;11.098;2024-01-15T07:38:15;21.17;;;8.07;;
18661;SDS011;61528;49.456;11.098;2024-01-15T07:40:41;18.63;;;8.10;;
18661;SDS011;61528;49.456;11.098;2024-01-15T07:43:07;16.70;;;7.87;;
18661;SDS011;61528;49.456;11.098;2024-01-15T07:45:33;16.63;;;7.27;;
18661;SDS011;61528;49.456;11.098;2024-01-15T07:47:59;18.27;;;8.07;;
18661;SDS011;61528;49.456;11.098;2024-01-15T07:50:25;19.40;;;8.67;;
18661;SDS011;61528;49.456;11.098;2024-01-15T07:52:51;19.27;;;9.13;;
18661;SDS011;61528;49.456;11.098;2024-01-15T07:55:18;20.87;;;8.43;;
18661;SDS011;61528;49.456;11.098;2024-01-15T07:57:44;16.93;;;8.17;;
18661;SDS011;61528;49.456;11.098;2024-01-15T08:00:11;17.23;;;8.13;;
18661;SDS011;61528;49.456;11.098;2024-01-15T08:02:37;20.33;;;8.23;;
18661;SDS011;61528;49.456;11.098;2024-01-15T08:05:03;17.80;;;8.13;;
18661;SDS011;61528;49.456;11.098;2024-01-15T08:07:30;17.57;;;7.67;;
18661;SDS011;61528;49.456;11.098;2024-01-15T08:09:56;20.67;;;8.00;;
18661;SDS011;61528;49.456;11.098;2024-01-15T08:12:23;22.13;;;8.50;;
18661;SDS011;61528;49.456;11.098;2024-01-15T08:14:49;16.87;;;7.53;;
18661;SDS011;61528;49.456;11.098;2024-01-15T08:17:15;23.97;;;9.13;;
18661;SDS011;61528;49.456;11.098;2024-01-15T08:19:42;20.63;;;9.03;;
18661;SDS011;61528;49.456;11.098;2024-01-15T08:22:08;19.80;;;8.67;;
18661;SDS011;61528;49.456;11.098;2024-01-15T08:24:35;19.23;;;8.03;;
18661;SDS011;61528;49.456;11.098;2024-01-15T08:27:01;16.83;;;7.97;;
18661;SDS011;61528;49.456;11.098;2024-01-15T08:29:27;20.93;;;8.77;;
18661;SDS011;61528;49.456;11.098;2024-01-15T08:31:53;17.80;;;8.20;;
18661;SDS011;61528;49.456;11.098;2024-01-15T08:34:19;21.03;;;8.33;;
18661;SDS011;61528;49.456;11.098;2024-01-15T08:36:46;15.80;;;7.87;;
18661;SDS011;61528;49.456;11.098;2024-01-15T08:39:12;15.77;;;7.30;;
18661;SDS011;61528;49.456;11.098;2024-01-15T08:41:38;17.03;;;8.03;;
18661;SDS011;61528;49.456;11.098;2024-01-15T08:44:04;19.23;;;7.47;;
18661;SDS011;61528;49.456;11.098;2024-01-15T08:46:30;19.03;;;8.23;;
18661;SDS011;61528;49.456;11.098;2024-01-15T08:48:56;16.63;;;7.20;;
18661;SDS011;61528;49.456;11.098;2024-01-15T08:51:22;19.07;;;7.27;;
18661;SDS011;61528;49.456;11.098;2024-01-15T08:53:49;15.57;;;7.47;;
18661;SDS011;61528;49.456;11.098;2024-01-15T08:56:15;13.93;;;7.23;;
18661;SDS011;61528;49.456;11.098;2024-01-15T08:58:41;16.60;;;7.03;;
18661;SDS011;61528;49.456;11.098;2024-01-15T09:01:07;13.57;;;7.60;;
18661;SDS011;61528;49.456;11.098;2024-01-15T09:03:33;16.07;;;7.63;;
18661;SDS011;61528;49.456;11.098;2024-01-15T09:05:59;15.17;;;7.73;;
18661;SDS011;61528;49.456;11.098;2024-01-15T09:08:26;16.07;;;7.20;;
18661;SDS011;61528;49.456;11.098;2024-01-15T09:10:52;14.10;;;6.47;;
18661;SDS011;61528;49.456;11.098;2024-01-15T09:13:19;16.87;;;7.97;;
18661;SDS011;61528;49.456;11.098;2024-01-15T09:15:45;15.37;;;6.20;;
18661;SDS011;61528;49.456;11.098;2024-01-15T09:18:11;16.33;;;7.30;;
18661;SDS011;61528;49.456;11.098;2024-01-15T09:20:37;16.03;;;6.53;;
18661;SDS011;61528;49.456;11.098;2024-01-15T09:23:03;16.53;;;7.63;;
18661;SDS011;61528;49.456;11.098;2024-01-15T09:25:29;17.33;;;7.27;;
18661;SDS011;61528;49.456;11.098;2024-01-15T09:27:56;14.63;;;7.30;;
18661;SDS011;61528;49.456;11.098;2024-01-15T09:30:23;16.90;;;7.43;;
18661;SDS011;61528;49.456;11.098;2024-01-15T09:32:49;14.90;;;6.93;;
18661;SDS011;61528;49.456;11.098;2024-01-15T09:35:15;16.40;;;7.67;;
18661;SDS011;61528;49.456;11.098;2024-01-15T09:37:41;12.90;;;6.83;;
18661;SDS011;61528;49.456;11.098;2024-01-15T09:40:08;14.30;;;6.97;;
18661;SDS011;61528;49.456;11.098;2024-01-15T09:42:39;14.53;;;7.37;;
18661;SDS011;61528;49.456;11.098;2024-01-15T09:45:07;13.30;;;6.50;;
18661;SDS011;61528;49.456;11.098;2024-01-15T09:47:34;13.13;;;7.07;;
18661;SDS011;61528;49.456;11.098;2024-01-15T09:50:01;14.23;;;6.53;;
18661;SDS011;61528;49.456;11.098;2024-01-15T09:52:28;12.83;;;7.03;;
18661;SDS011;61528;49.456;11.098;2024-01-15T09:54:57;14.00;;;6.63;;
18661;SDS011;61528;49.456;11.098;2024-01-15T09:57:24;11.60;;;7.17;;
18661;SDS011;61528;49.456;11.098;2024-01-15T09:59:51;15.20;;;7.43;;
18661;SDS011;61528;49.456;11.098;2024-01-15T10:02:18;16.57;;;7.93;;
18661;SDS011;61528;49.456;11.098;2024-01-15T10:04:45;14.13;;;7.43;;
18661;SDS011;61528;49.456;11.098;2024-01-15T10:07:15;18.50;;;6.27;;
18661;SDS011;61528;49.456;11.098;2024-01-15T10:09:44;14.87;;;6.20;;
18661;SDS011;61528;49.456;11.098;2024-01-15T10:12:11;13.17;;;6.83;;
18661;SDS011;61528;49.456;11.098;2024-01-15T10:14:37;15.77;;;7.33;;
18661;SDS011;61528;49.456;11.098;2024-01-15T10:17:13;15.20;;;7.43;;
18661;SDS011;61528;49.456;11.098;2024-01-15T10:19:43;10.77;;;6.20;;
18661;SDS011;61528;49.456;11.098;2024-01-15T10:22:09;15.13;;;6.77;;
18661;SDS011;61528;49.456;11.098;2024-01-15T10:24:36;11.33;;;6.33;;
18661;SDS011;61528;49.456;11.098;2024-01-15T10:27:08;13.33;;;6.37;;
18661;SDS011;61528;49.456;11.098;2024-01-15T10:29:35;12.70;;;6.77;;
18661;SDS011;61528;49.456;11.098;2024-01-15T10:32:07;13.43;;;7.33;;
18661;SDS011;61528;49.456;11.098;2024-01-15T10:34:37;13.70;;;6.40;;
18661;SDS011;61528;49.456;11.098;2024-01-15T10:37:05;12.83;;;6.50;;
18661;SDS011;61528;49.456;11.098;2024-01-15T10:39:32;15.90;;;7.20;;
18661;SDS011;61528;49.456;11.098;2024-01-15T10:41:59;13.27;;;6.53;;
18661;SDS011;61528;49.456;11.098;2024-01-15T10:44:25;11.03;;;5.83;;
18661;SDS011;61528;49.456;11.098;2024-01-15T10:46:52;14.87;;;6.37;;
18661;SDS011;61528;49.456;11.098;2024-01-15T10:49:18;13.50;;;6.70;;
18661;SDS011;61528;49.456;11.098;2024-01-15T10:51:45;16.47;;;6.80;;
18661;SDS011;61528;49.456;11.098;2024-01-15T10:54:12;13.53;;;6.80;;
18661;SDS011;61528;49.456;11.098;2024-01-15T10:56:39;11.90;;;6.53;;
18661;SDS011;61528;49.456;11.098;2024-01-15T10:59:06;11.90;;;5.63;;
18661;SDS011;61528;49.456;11.098;2024-01-15T11:01:34;10.90;;;6.03;;
18661;SDS011;61528;49.456;11.098;2024-01-15T11:04:01;15.03;;;6.57;;
18661;SDS011;61528;49.456;11.098;2024-01-15T11:06:28;15.27;;;6.60;;
18661;SDS011;61528;49.456;11.098;2024-01-15T11:08:54;15.43;;;7.13;;
18661;SDS011;61528;49.456;11.098;2024-01-15T11:11:21;14.60;;;7.33;;
18661;SDS011;61528;49.456;11.098;2024-01-15T11:13:48;11.77;;;6.17;;
18661;SDS011;61528;49.456;11.098;2024-01-15T11:16:17;14.33;;;7.20;;
18661;SDS011;61528;49.456;11.098;2024-01-15T11:19:05;14.53;;;7.20;;
18661;SDS011;61528;49.456;11.098;2024-01-15T11:21:31;12.87;;;6.87;;
18661;SDS011;61528;49.456;11.098;2024-01-15T11:24:01;13.50;;;6.17;;
18661;SDS011;61528;49.456;11.098;2024-01-15T11:33:55;13.80;;;6.63;;
18661;SDS011;61528;49.456;11.098;2024-01-15T11:36:46;12.03;;;6.03;;
18661;SDS011;61528;49.456;11.098;2024-01-15T11:39:39;12.73;;;6.40;;
18661;SDS011;61528;49.456;11.098;2024-01-15T11:41:58;10.90;;;6.23;;
18661;SDS011;61528;49.456;11.098;2024-01-15T11:44:25;13.67;;;7.17;;
18661;SDS011;61528;49.456;11.098;2024-01-15T11:47:04;14.30;;;7.27;;
18661;SDS011;61528;49.456;11.098;2024-01-15T11:52:00;11.37;;;6.40;;
18661;SDS011;61528;49.456;11.098;2024-01-15T11:54:27;13.03;;;6.73;;
18661;SDS011;61528;49.456;11.098;2024-01-15T11:56:55;12.43;;;6.20;;
18661;SDS011;61528;49.456;11.098;2024-01-15T11:59:22;15.40;;;6.53;;
18661;SDS011;61528;49.456;11.098;2024-01-15T12:01:48;12.60;;;6.23;;
18661;SDS011;61528;49.456;11.098;2024-01-15T12:04:15;12.30;;;6.47;;
18661;SDS011;61528;49.456;11.098;2024-01-15T12:06:42;10.50;;;5.73;;
18661;SDS011;61528;49.456;11.098;2024-01-15T12:09:09;13.47;;;6.47;;
18661;SDS011;61528;49.456;11.098;2024-01-15T12:11:35;11.53;;;6.23;;
18661;SDS011;61528;49.456;11.098;2024-01-15T12:14:02;12.97;;;6.60;;
18661;SDS011;61528;49.456;11.098;2024-01-15T12:16:29;11.93;;;5.97;;
18661;SDS011;61528;49.456;11.098;2024-01-15T12:18:55;12.13;;;6.17;;
18661;SDS011;61528;49.456;11.098;2024-01-15T12:21:21;10.90;;;6.13;;
18661;SDS011;61528;49.456;11.098;2024-01-15T12:23:48;11.43;;;6.40;;
18661;SDS011;61528;49.456;11.098;2024-01-15T12:26:17;11.57;;;5.30;;
18661;SDS011;61528;49.456;11.098;2024-01-15T12:28:44;12.73;;;5.77;;
18661;SDS011;61528;49.456;11.098;2024-01-15T12:31:10;12.57;;;6.47;;
18661;SDS011;61528;49.456;11.098;2024-01-15T12:33:36;10.70;;;6.47;;
18661;SDS011;61528;49.456;11.098;2024-01-15T12:36:03;9.80;;;5.57;;
18661;SDS011;61528;49.456;11.098;2024-01-15T12:38:30;12.57;;;5.87;;
18661;SDS011;61528;49.456;11.098;2024-01-15T12:40:56;10.57;;;5.77;;
18661;SDS011;61528;49.456;11.098;2024-01-15T12:43:22;14.97;;;6.27;;
18661;SDS011;61528;49.456;11.098;2024-01-15T12:45:49;12.60;;;5.93;;
18661;SDS011;61528;49.456;11.098;2024-01-15T12:48:16;12.50;;;6.43;;
18661;SDS011;61528;49.456;11.098;2024-01-15T12:50:43;10.80;;;5.77;;
18661;SDS011;61528;49.456;11.098;2024-01-15T12:53:10;12.67;;;5.97;;
18661;SDS011;61528;49.456;11.098;2024-01-15T12:55:36;11.17;;;5.63;;
18661;SDS011;61528;49.456;11.098;2024-01-15T12:58:03;10.50;;;6.73;;
18661;SDS011;61528;49.456;11.098;2024-01-15T13:00:30;9.00;;;5.77;;
18661;SDS011;61528;49.456;11.098;2024-01-15T13:02:56;8.97;;;4.73;;
18661;SDS011;61528;49.456;11.098;2024-01-15T13:05:23;8.87;;;5.00;;
18661;SDS011;61528;49.456;11.098;2024-01-15T13:07:49;9.63;;;5.90;;
18661;SDS011;61528;49.456;11.098;2024-01-15T13:10:16;11.47;;;6.00;;
18661;SDS011;61528;49.456;11.098;2024-01-15T13:12:42;12.10;;;5.83;;
18661;SDS011;61528;49.456;11.098;2024-01-15T13:15:09;11.17;;;6.00;;
18661;SDS011;61528;49.456;11.098;2024-01-15T13:17:38;9.47;;;5.57;;
18661;SDS011;61528;49.456;11.098;2024-01-15T13:20:05;10.33;;;5.57;;
18661;SDS011;61528;49.456;11.098;2024-01-15T13:22:33;11.97;;;6.40;;
18661;SDS011;61528;49.456;11.098;2024-01-15T13:24:59;10.77;;;5.67;;
18661;SDS011;61528;49.456;11.098;2024-01-15T13:27:26;9.80;;;4.67;;
18661;SDS011;61528;49.456;11.098;2024-01-15T13:29:52;12.60;;;5.60;;
18661;SDS011;61528;49.456;11.098;2024-01-15T13:32:22;11.63;;;6.00;;
18661;SDS011;61528;49.456;11.098;2024-01-15T13:34:51;8.17;;;5.07;;
18661;SDS011;61528;49.456;11.098;2024-01-15T13:37:17;11.57;;;5.77;;
18661;SDS011;61528;49.456;11.098;2024-01-15T13:39:43;8.67;;;5.03;;
18661;SDS011;61528;49.456;11.098;2024-01-15T13:42:10;9.87;;;5.27;;
18661;SDS011;61528;49.456;11.098;2024-01-15T13:44:36;9.90;;;5.47;;
18661;SDS011;61528;49.456;11.098;2024-01-15T13:47:03;10.03;;;5.43;;
18661;SDS011;61528;49.456;11.098;2024-01-15T13:49:30;10.07;;;5.10;;
18661;SDS011;61528;49.456;11.098;2024-01-15T13:51:56;9.80;;;5.50;;
18661;SDS011;61528;49.456;11.098;2024-01-15T13:54:23;10.27;;;5.50;;
18661;SDS011;61528;49.456;11.098;2024-01-15T13:56:50;8.43;;;4.77;;
18661;SDS011;61528;49.456;11.098;2024-01-15T13:59:16;11.50;;;5.37;;
18661;SDS011;61528;49.456;11.098;2024-01-15T14:01:43;9.97;;;5.77;;
18661;SDS011;61528;49.456;11.098;2024-01-15T14:04:09;10.67;;;6.17;;
18661;SDS011;61528;49.456;11.098;2024-01-15T14:06:35;8.90;;;5.57;;
18661;SDS011;61528;49.456;11.098;2024-01-15T14:09:02;9.10;;;4.97;;
18661;SDS011;61528;49.456;11.098;2024-01-15T14:11:29;12.20;;;5.33;;
18661;SDS011;61528;49.456;11.098;2024-01-15T14:13:56;13.53;;;5.17;;
18661;SDS011;61528;49.456;11.098;2024-01-15T14:16:22;9.90;;;5.60;;
18661;SDS011;61528;49.456;11.098;2024-01-15T14:18:48;6.67;;;4.53;;
18661;SDS011;61528;49.456;11.098;2024-01-15T14:21:15;10.27;;;5.63;;
18661;SDS011;61528;49.456;11.098;2024-01-15T14:23:41;9.87;;;5.43;;
18661;SDS011;61528;49.456;11.098;2024-01-15T14:26:07;7.97;;;4.93;;